sensor_id;sensor_type;location;lat;lon;timestamp;temperature;humidity
66726;HTU21D;53638;51.062;5.804;2023-07-31T00:01:02;16.87;118.99
66726;HTU21D;53638;51.062;5.804;2023-07-31T00:03:28;16.90;118.99
66726;HTU21D;53638;51.062;5.804;2023-07-31T00:05:54;16.90;118.99
66726;HTU21D;53638;51.062;5.804;2023-07-31T00:08:20;16.90;118.99
66726;HTU21D;53638;51.062;5.804;2023-07-31T00:10:46;16.89;118.99
66726;HTU21D;53638;51.062;5.804;2023-07-31T00:13:12;16.88;118.99
66726;HTU21D;53638;51.062;5.804;2023-07-31T00:15:38;16.90;118.99
66726;HTU21D;53638;51.062;5.804;2023-07-31T00:18:05;16.93;118.99
66726;HTU21D;53638;51.062;5.804;2023-07-31T00:20:35;16.94;118.99
66726;HTU21D;53638;51.062;5.804;2023-07-31T00:23:01;16.98;118.99
66726;HTU21D;53638;51.062;5.804;2023-07-31T00:25:26;17.00;118.99
66726;HTU21D;53638;51.062;5.804;2023-07-31T00:27:52;17.02;118.99
66726;HTU21D;53638;51.062;5.804;2023-07-31T00:30:18;17.01;118.99
66726;HTU21D;53638;51.062;5.804;2023-07-31T00:32:45;17.00;118.99
66726;HTU21D;53638;51.062;5.804;2023-07-31T00:35:10;16.94;118.99
66726;HTU21D;53638;51.062;5.804;2023-07-31T00:37:36;16.91;118.99
66726;HTU21D;53638;51.062;5.804;2023-07-31T00:40:02;16.86;118.99
66726;HTU21D;53638;51.062;5.804;2023-07-31T00:42:29;16.81;118.99
66726;HTU21D;53638;51.062;5.804;2023-07-31T00:44:55;16.77;118.99
66726;HTU21D;53638;51.062;5.804;2023-07-31T00:47:25;16.75;118.99
66726;HTU21D;53638;51.062;5.804;2023-07-31T00:49:52;16.75;118.99
66726;HTU21D;53638;51.062;5.804;2023-07-31T00:52:19;16.65;118.99
66726;HTU21D;53638;51.062;5.804;2023-07-31T00:54:45;16.67;118.99
66726;HTU21D;53638;51.062;5.804;2023-07-31T00:57:11;16.70;118.99
66726;HTU21D;53638;51.062;5.804;2023-07-31T00:59:37;16.73;118.99
66726;HTU21D;53638;51.062;5.804;2023-07-31T01:02:04;16.78;118.99
66726;HTU21D;53638;51.062;5.804;2023-07-31T01:04:30;16.86;118.99
66726;HTU21D;53638;51.062;5.804;2023-07-31T01:07:11;16.91;118.99
66726;HTU21D;53638;51.062;5.804;2023-07-31T01:12:27;16.98;118.99
66726;HTU21D;53638;51.062;5.804;2023-07-31T01:15:06;17.00;118.99
66726;HTU21D;53638;51.062;5.804;2023-07-31T01:17:37;17.02;118.99
66726;HTU21D;53638;51.062;5.804;2023-07-31T01:20:07;17.02;118.99
66726;HTU21D;53638;51.062;5.804;2023-07-31T01:22:48;17.05;118.99
66726;HTU21D;53638;51.062;5.804;2023-07-31T01:25:50;17.13;118.99
66726;HTU21D;53638;51.062;5.804;2023-07-31T01:28:25;17.13;118.99
66726;HTU21D;53638;51.062;5.804;2023-07-31T01:30:58;17.14;118.99
66726;HTU21D;53638;51.062;5.804;2023-07-31T01:33:25;17.18;118.99
66726;HTU21D;53638;51.062;5.804;2023-07-31T01:35:52;17.20;118.99
66726;HTU21D;53638;51.062;5.804;2023-07-31T01:38:24;17.24;118.99
66726;HTU21D;53638;51.062;5.804;2023-07-31T01:40:52;17.24;118.99
66726;HTU21D;53638;51.062;5.804;2023-07-31T01:43:18;17.26;118.99
66726;HTU21D;53638;51.062;5.804;2023-07-31T01:45:44;17.31;118.99
66726;HTU21D;53638;51.062;5.804;2023-07-31T01:48:10;17.33;118.99
66726;HTU21D;53638;51.062;5.804;2023-07-31T01:50:36;17.37;118.99
66726;HTU21D;53638;51.062;5.804;2023-07-31T01:53:02;17.43;118.99
66726;HTU21D;53638;51.062;5.804;2023-07-31T01:55:28;17.45;118.99
66726;HTU21D;53638;51.062;5.804;2023-07-31T01:57:53;17.47;118.99
66726;HTU21D;53638;51.062;5.804;2023-07-31T02:00:19;17.49;118.99
66726;HTU21D;53638;51.062;5.804;2023-07-31T02:02:45;17.50;118.99
66726;HTU21D;53638;51.062;5.804;2023-07-31T02:05:11;17.50;118.99
66726;HTU21D;53638;51.062;5.804;2023-07-31T02:07:37;17.50;118.99
66726;HTU21D;53638;51.062;5.804;2023-07-31T02:10:03;17.51;118.99
66726;HTU21D;53638;51.062;5.804;2023-07-31T02:12:29;17.52;118.99
66726;HTU21D;53638;51.062;5.804;2023-07-31T02:14:57;17.53;118.99
66726;HTU21D;53638;51.062;5.804;2023-07-31T02:17:24;17.52;118.99
66726;HTU21D;53638;51.062;5.804;2023-07-31T02:19:50;17.52;118.99
66726;HTU21D;53638;51.062;5.804;2023-07-31T02:22:16;17.52;118.99
66726;HTU21D;53638;51.062;5.804;2023-07-31T02:24:42;17.51;118.99
66726;HTU21D;53638;51.062;5.804;2023-07-31T02:27:08;17.52;118.99
66726;HTU21D;53638;51.062;5.804;2023-07-31T02:29:34;17.52;118.99
66726;HTU21D;53638;51.062;5.804;2023-07-31T02:32:00;17.53;118.99
66726;HTU21D;53638;51.062;5.804;2023-07-31T02:34:25;17.54;118.99
66726;HTU21D;53638;51.062;5.804;2023-07-31T02:36:52;17.55;118.99
66726;HTU21D;53638;51.062;5.804;2023-07-31T02:39:18;17.59;118.99
66726;HTU21D;53638;51.062;5.804;2023-07-31T02:41:44;17.61;118.99
66726;HTU21D;53638;51.062;5.804;2023-07-31T02:44:10;17.61;118.99
66726;HTU21D;53638;51.062;5.804;2023-07-31T02:46:38;17.61;118.99
66726;HTU21D;53638;51.062;5.804;2023-07-31T02:49:04;17.63;118.99
66726;HTU21D;53638;51.062;5.804;2023-07-31T02:51:30;17.65;118.99
66726;HTU21D;53638;51.062;5.804;2023-07-31T02:53:56;17.65;118.99
66726;HTU21D;53638;51.062;5.804;2023-07-31T02:56:21;17.65;118.99
66726;HTU21D;53638;51.062;5.804;2023-07-31T02:58:47;17.67;118.99
66726;HTU21D;53638;51.062;5.804;2023-07-31T03:01:13;17.69;118.99
66726;HTU21D;53638;51.062;5.804;2023-07-31T03:03:41;17.69;118.99
66726;HTU21D;53638;51.062;5.804;2023-07-31T03:06:07;17.72;118.99
66726;HTU21D;53638;51.062;5.804;2023-07-31T03:08:33;17.73;118.99
66726;HTU21D;53638;51.062;5.804;2023-07-31T03:10:59;17.68;118.99
66726;HTU21D;53638;51.062;5.804;2023-07-31T03:13:25;17.67;118.99
66726;HTU21D;53638;51.062;5.804;2023-07-31T03:15:51;17.68;118.99
66726;HTU21D;53638;51.062;5.804;2023-07-31T03:18:17;17.70;118.99
66726;HTU21D;53638;51.062;5.804;2023-07-31T03:20:43;17.72;118.99
66726;HTU21D;53638;51.062;5.804;2023-07-31T03:23:10;17.73;118.99
66726;HTU21D;53638;51.062;5.804;2023-07-31T03:25:36;17.75;118.99
66726;HTU21D;53638;51.062;5.804;2023-07-31T03:28:01;17.77;118.99
66726;HTU21D;53638;51.062;5.804;2023-07-31T03:30:29;17.78;118.99
66726;HTU21D;53638;51.062;5.804;2023-07-31T03:32:55;17.78;118.99
66726;HTU21D;53638;51.062;5.804;2023-07-31T03:35:21;17.80;118.99
66726;HTU21D;53638;51.062;5.804;2023-07-31T03:37:47;17.79;118.99
66726;HTU21D;53638;51.062;5.804;2023-07-31T03:40:13;17.81;118.99
66726;HTU21D;53638;51.062;5.804;2023-07-31T03:42:39;17.79;118.99
66726;HTU21D;53638;51.062;5.804;2023-07-31T03:45:06;17.79;118.99
66726;HTU21D;53638;51.062;5.804;2023-07-31T03:47:32;17.78;118.99
66726;HTU21D;53638;51.062;5.804;2023-07-31T03:49:58;17.81;118.99
66726;HTU21D;53638;51.062;5.804;2023-07-31T03:52:24;17.79;118.99
66726;HTU21D;53638;51.062;5.804;2023-07-31T03:54:50;17.78;118.99
66726;HTU21D;53638;51.062;5.804;2023-07-31T03:57:15;17.77;118.99
66726;HTU21D;53638;51.062;5.804;2023-07-31T03:59:42;17.77;118.99
66726;HTU21D;53638;51.062;5.804;2023-07-31T04:02:07;17.78;118.99
66726;HTU21D;53638;51.062;5.804;2023-07-31T04:04:33;17.78;118.99
66726;HTU21D;53638;51.062;5.804;2023-07-31T04:06:59;17.77;118.99
66726;HTU21D;53638;51.062;5.804;2023-07-31T04:09:25;17.77;118.99
66726;HTU21D;53638;51.062;5.804;2023-07-31T04:11:51;17.79;118.99
66726;HTU21D;53638;51.062;5.804;2023-07-31T04:14:17;17.81;118.99
66726;HTU21D;53638;51.062;5.804;2023-07-31T04:16:42;17.82;118.99
66726;HTU21D;53638;51.062;5.804;2023-07-31T04:19:08;17.87;118.99
66726;HTU21D;53638;51.062;5.804;2023-07-31T04:21:36;17.87;118.99
66726;HTU21D;53638;51.062;5.804;2023-07-31T04:24:02;17.89;118.99
66726;HTU21D;53638;51.062;5.804;2023-07-31T04:26:28;17.91;118.99
66726;HTU21D;53638;51.062;5.804;2023-07-31T04:28:53;17.95;118.99
66726;HTU21D;53638;51.062;5.804;2023-07-31T04:31:19;17.98;118.99
66726;HTU21D;53638;51.062;5.804;2023-07-31T04:33:45;17.99;118.99
66726;HTU21D;53638;51.062;5.804;2023-07-31T04:36:11;18.02;118.99
66726;HTU21D;53638;51.062;5.804;2023-07-31T04:38:37;18.04;118.99
66726;HTU21D;53638;51.062;5.804;2023-07-31T04:41:03;18.05;118.99
66726;HTU21D;53638;51.062;5.804;2023-07-31T04:43:29;18.07;118.99
66726;HTU21D;53638;51.062;5.804;2023-07-31T04:45:55;18.06;118.99
66726;HTU21D;53638;51.062;5.804;2023-07-31T04:48:21;18.07;118.99
66726;HTU21D;53638;51.062;5.804;2023-07-31T04:50:47;18.07;118.99
66726;HTU21D;53638;51.062;5.804;2023-07-31T04:53:13;18.07;118.99
66726;HTU21D;53638;51.062;5.804;2023-07-31T04:55:39;18.05;118.99
66726;HTU21D;53638;51.062;5.804;2023-07-31T04:58:05;18.05;118.99
66726;HTU21D;53638;51.062;5.804;2023-07-31T05:00:31;18.03;118.99
66726;HTU21D;53638;51.062;5.804;2023-07-31T05:02:57;18.04;118.99
66726;HTU21D;53638;51.062;5.804;2023-07-31T05:05:22;18.03;118.99
66726;HTU21D;53638;51.062;5.804;2023-07-31T05:07:48;18.00;118.99
66726;HTU21D;53638;51.062;5.804;2023-07-31T05:10:14;18.02;118.99
66726;HTU21D;53638;51.062;5.804;2023-07-31T05:12:40;17.93;118.99
66726;HTU21D;53638;51.062;5.804;2023-07-31T05:15:06;17.83;118.99
66726;HTU21D;53638;51.062;5.804;2023-07-31T05:17:32;17.76;118.99
66726;HTU21D;53638;51.062;5.804;2023-07-31T05:19:58;17.74;118.99
66726;HTU21D;53638;51.062;5.804;2023-07-31T05:22:24;17.69;118.99
66726;HTU21D;53638;51.062;5.804;2023-07-31T05:24:50;17.72;118.99
66726;HTU21D;53638;51.062;5.804;2023-07-31T05:27:16;17.73;118.99
66726;HTU21D;53638;51.062;5.804;2023-07-31T05:29:44;17.69;118.99
66726;HTU21D;53638;51.062;5.804;2023-07-31T05:32:11;17.70;118.99
66726;HTU21D;53638;51.062;5.804;2023-07-31T05:34:37;17.67;118.99
66726;HTU21D;53638;51.062;5.804;2023-07-31T05:37:05;17.65;118.99
66726;HTU21D;53638;51.062;5.804;2023-07-31T05:39:31;17.65;118.99
66726;HTU21D;53638;51.062;5.804;2023-07-31T05:41:57;17.65;118.99
66726;HTU21D;53638;51.062;5.804;2023-07-31T05:44:23;17.65;118.99
66726;HTU21D;53638;51.062;5.804;2023-07-31T05:46:49;17.65;118.99
66726;HTU21D;53638;51.062;5.804;2023-07-31T05:49:15;17.68;118.99
66726;HTU21D;53638;51.062;5.804;2023-07-31T05:51:41;17.75;118.99
66726;HTU21D;53638;51.062;5.804;2023-07-31T05:54:06;17.81;118.99
66726;HTU21D;53638;51.062;5.804;2023-07-31T05:56:32;17.88;118.99
66726;HTU21D;53638;51.062;5.804;2023-07-31T05:58:59;17.93;118.99
66726;HTU21D;53638;51.062;5.804;2023-07-31T06:01:25;17.95;118.99
66726;HTU21D;53638;51.062;5.804;2023-07-31T06:03:51;17.96;118.99
66726;HTU21D;53638;51.062;5.804;2023-07-31T06:06:17;17.98;118.99
66726;HTU21D;53638;51.062;5.804;2023-07-31T06:08:43;17.99;118.99
66726;HTU21D;53638;51.062;5.804;2023-07-31T06:11:09;18.00;118.99
66726;HTU21D;53638;51.062;5.804;2023-07-31T06:13:35;17.96;118.99
66726;HTU21D;53638;51.062;5.804;2023-07-31T06:16:01;17.92;118.99
66726;HTU21D;53638;51.062;5.804;2023-07-31T06:18:32;17.91;118.99
66726;HTU21D;53638;51.062;5.804;2023-07-31T06:20:58;17.97;118.99
66726;HTU21D;53638;51.062;5.804;2023-07-31T06:23:24;18.00;118.99
66726;HTU21D;53638;51.062;5.804;2023-07-31T06:25:50;18.04;118.99
66726;HTU21D;53638;51.062;5.804;2023-07-31T06:28:16;18.05;118.99
66726;HTU21D;53638;51.062;5.804;2023-07-31T06:30:42;18.00;118.99
66726;HTU21D;53638;51.062;5.804;2023-07-31T06:33:07;17.99;118.99
66726;HTU21D;53638;51.062;5.804;2023-07-31T06:35:35;17.99;118.99
66726;HTU21D;53638;51.062;5.804;2023-07-31T06:38:01;17.90;118.99
66726;HTU21D;53638;51.062;5.804;2023-07-31T06:40:28;17.77;118.99
66726;HTU21D;53638;51.062;5.804;2023-07-31T06:42:54;17.54;118.99
66726;HTU21D;53638;51.062;5.804;2023-07-31T06:45:20;17.53;118.99
66726;HTU21D;53638;51.062;5.804;2023-07-31T06:47:47;17.55;118.99
66726;HTU21D;53638;51.062;5.804;2023-07-31T06:50:13;17.56;118.99
66726;HTU21D;53638;51.062;5.804;2023-07-31T06:52:39;17.54;118.99
66726;HTU21D;53638;51.062;5.804;2023-07-31T06:55:17;17.54;118.99
66726;HTU21D;53638;51.062;5.804;2023-07-31T06:57:44;17.53;118.99
66726;HTU21D;53638;51.062;5.804;2023-07-31T07:00:11;17.56;118.99
66726;HTU21D;53638;51.062;5.804;2023-07-31T07:02:37;17.54;118.99
66726;HTU21D;53638;51.062;5.804;2023-07-31T07:05:03;17.50;118.99
66726;HTU21D;53638;51.062;5.804;2023-07-31T07:07:29;17.44;118.99
66726;HTU21D;53638;51.062;5.804;2023-07-31T07:09:55;17.48;118.99
66726;HTU21D;53638;51.062;5.804;2023-07-31T07:12:20;17.56;118.99
66726;HTU21D;53638;51.062;5.804;2023-07-31T07:14:46;17.64;118.99
66726;HTU21D;53638;51.062;5.804;2023-07-31T07:17:13;17.68;118.99
66726;HTU21D;53638;51.062;5.804;2023-07-31T07:19:40;17.72;118.99
66726;HTU21D;53638;51.062;5.804;2023-07-31T07:22:07;17.70;118.99
66726;HTU21D;53638;51.062;5.804;2023-07-31T07:24:33;17.64;118.99
66726;HTU21D;53638;51.062;5.804;2023-07-31T07:26:59;17.66;118.99
66726;HTU21D;53638;51.062;5.804;2023-07-31T07:29:25;17.74;118.99
66726;HTU21D;53638;51.062;5.804;2023-07-31T07:31:51;17.87;118.99
66726;HTU21D;53638;51.062;5.804;2023-07-31T07:34:17;17.95;118.99
66726;HTU21D;53638;51.062;5.804;2023-07-31T07:36:43;18.05;118.99
66726;HTU21D;53638;51.062;5.804;2023-07-31T07:39:10;18.21;118.99
66726;HTU21D;53638;51.062;5.804;2023-07-31T07:41:36;18.33;118.99
66726;HTU21D;53638;51.062;5.804;2023-07-31T07:44:02;18.38;118.99
66726;HTU21D;53638;51.062;5.804;2023-07-31T07:46:28;18.43;118.99
66726;HTU21D;53638;51.062;5.804;2023-07-31T07:48:54;18.56;118.99
66726;HTU21D;53638;51.062;5.804;2023-07-31T07:51:20;18.61;118.99
66726;HTU21D;53638;51.062;5.804;2023-07-31T07:53:46;18.65;118.99
66726;HTU21D;53638;51.062;5.804;2023-07-31T07:56:12;18.65;118.99
66726;HTU21D;53638;51.062;5.804;2023-07-31T07:58:38;18.68;118.99
66726;HTU21D;53638;51.062;5.804;2023-07-31T08:01:04;18.57;118.99
66726;HTU21D;53638;51.062;5.804;2023-07-31T08:03:29;18.51;118.99
66726;HTU21D;53638;51.062;5.804;2023-07-31T08:05:59;18.42;118.99
66726;HTU21D;53638;51.062;5.804;2023-07-31T08:08:26;18.36;118.99
66726;HTU21D;53638;51.062;5.804;2023-07-31T08:10:51;18.33;118.99
66726;HTU21D;53638;51.062;5.804;2023-07-31T08:13:17;18.25;118.99
66726;HTU21D;53638;51.062;5.804;2023-07-31T08:15:43;18.20;118.99
66726;HTU21D;53638;51.062;5.804;2023-07-31T08:18:11;18.13;118.99
66726;HTU21D;53638;51.062;5.804;2023-07-31T08:20:38;18.03;118.99
66726;HTU21D;53638;51.062;5.804;2023-07-31T08:23:04;18.04;118.99
66726;HTU21D;53638;51.062;5.804;2023-07-31T08:25:30;18.10;118.99
66726;HTU21D;53638;51.062;5.804;2023-07-31T08:27:55;18.26;118.99
66726;HTU21D;53638;51.062;5.804;2023-07-31T08:30:21;18.34;118.99
66726;HTU21D;53638;51.062;5.804;2023-07-31T08:32:48;18.38;118.99
66726;HTU21D;53638;51.062;5.804;2023-07-31T08:35:14;18.49;118.99
66726;HTU21D;53638;51.062;5.804;2023-07-31T08:37:40;18.59;118.99
66726;HTU21D;53638;51.062;5.804;2023-07-31T08:40:07;18.69;118.99
66726;HTU21D;53638;51.062;5.804;2023-07-31T08:42:33;18.87;118.99
66726;HTU21D;53638;51.062;5.804;2023-07-31T08:44:59;19.05;118.99
66726;HTU21D;53638;51.062;5.804;2023-07-31T08:47:27;19.06;118.99
66726;HTU21D;53638;51.062;5.804;2023-07-31T08:49:55;19.01;118.99
66726;HTU21D;53638;51.062;5.804;2023-07-31T08:52:22;19.08;118.99
66726;HTU21D;53638;51.062;5.804;2023-07-31T08:54:48;19.23;118.99
66726;HTU21D;53638;51.062;5.804;2023-07-31T08:57:14;19.33;118.99
66726;HTU21D;53638;51.062;5.804;2023-07-31T08:59:41;19.46;118.99
66726;HTU21D;53638;51.062;5.804;2023-07-31T09:02:08;19.70;118.99
66726;HTU21D;53638;51.062;5.804;2023-07-31T09:04:35;19.68;118.99
66726;HTU21D;53638;51.062;5.804;2023-07-31T09:07:02;19.54;118.99
66726;HTU21D;53638;51.062;5.804;2023-07-31T09:09:31;19.40;118.99
66726;HTU21D;53638;51.062;5.804;2023-07-31T09:11:58;19.32;118.99
66726;HTU21D;53638;51.062;5.804;2023-07-31T09:14:25;19.26;118.99
66726;HTU21D;53638;51.062;5.804;2023-07-31T09:16:56;19.17;118.99
66726;HTU21D;53638;51.062;5.804;2023-07-31T09:19:32;19.07;118.99
66726;HTU21D;53638;51.062;5.804;2023-07-31T09:22:00;18.94;118.99
66726;HTU21D;53638;51.062;5.804;2023-07-31T09:24:27;18.80;118.99
66726;HTU21D;53638;51.062;5.804;2023-07-31T09:26:54;18.82;118.99
66726;HTU21D;53638;51.062;5.804;2023-07-31T09:29:23;18.96;118.99
66726;HTU21D;53638;51.062;5.804;2023-07-31T09:31:49;19.02;118.99
66726;HTU21D;53638;51.062;5.804;2023-07-31T09:34:15;19.05;118.99
66726;HTU21D;53638;51.062;5.804;2023-07-31T09:36:43;19.00;118.99
66726;HTU21D;53638;51.062;5.804;2023-07-31T09:39:11;19.18;118.99
66726;HTU21D;53638;51.062;5.804;2023-07-31T09:41:39;19.35;118.99
66726;HTU21D;53638;51.062;5.804;2023-07-31T09:44:05;19.45;118.99
66726;HTU21D;53638;51.062;5.804;2023-07-31T09:46:32;19.71;118.99
66726;HTU21D;53638;51.062;5.804;2023-07-31T09:49:10;20.10;118.99
66726;HTU21D;53638;51.062;5.804;2023-07-31T09:51:38;20.44;118.99
66726;HTU21D;53638;51.062;5.804;2023-07-31T09:54:10;20.56;118.99
66726;HTU21D;53638;51.062;5.804;2023-07-31T09:56:42;20.60;118.99
66726;HTU21D;53638;51.062;5.804;2023-07-31T09:59:12;20.57;118.99
66726;HTU21D;53638;51.062;5.804;2023-07-31T10:01:40;20.32;118.99
66726;HTU21D;53638;51.062;5.804;2023-07-31T10:04:08;20.18;118.99
66726;HTU21D;53638;51.062;5.804;2023-07-31T10:06:36;20.13;118.99
66726;HTU21D;53638;51.062;5.804;2023-07-31T10:09:06;20.04;118.99
66726;HTU21D;53638;51.062;5.804;2023-07-31T10:11:38;20.00;118.99
66726;HTU21D;53638;51.062;5.804;2023-07-31T10:14:07;20.00;118.99
66726;HTU21D;53638;51.062;5.804;2023-07-31T10:16:35;19.87;118.99
66726;HTU21D;53638;51.062;5.804;2023-07-31T10:19:01;19.87;118.99
66726;HTU21D;53638;51.062;5.804;2023-07-31T10:21:28;19.91;118.99
66726;HTU21D;53638;51.062;5.804;2023-07-31T10:23:56;19.91;118.99
66726;HTU21D;53638;51.062;5.804;2023-07-31T10:26:23;20.01;118.99
66726;HTU21D;53638;51.062;5.804;2023-07-31T10:28:52;20.20;118.99
66726;HTU21D;53638;51.062;5.804;2023-07-31T10:31:18;20.31;118.99
66726;HTU21D;53638;51.062;5.804;2023-07-31T10:33:45;20.33;118.99
66726;HTU21D;53638;51.062;5.804;2023-07-31T10:36:14;20.34;118.99
66726;HTU21D;53638;51.062;5.804;2023-07-31T10:38:42;20.29;118.99
66726;HTU21D;53638;51.062;5.804;2023-07-31T10:41:09;20.14;118.99
66726;HTU21D;53638;51.062;5.804;2023-07-31T10:43:37;19.90;118.99
66726;HTU21D;53638;51.062;5.804;2023-07-31T10:46:08;19.73;118.99
66726;HTU21D;53638;51.062;5.804;2023-07-31T10:48:35;19.80;118.99
66726;HTU21D;53638;51.062;5.804;2023-07-31T10:51:08;19.89;118.99
66726;HTU21D;53638;51.062;5.804;2023-07-31T10:53:34;19.95;118.99
66726;HTU21D;53638;51.062;5.804;2023-07-31T10:56:02;20.00;118.99
66726;HTU21D;53638;51.062;5.804;2023-07-31T10:58:29;20.21;118.99
66726;HTU21D;53638;51.062;5.804;2023-07-31T11:00:59;20.41;118.99
66726;HTU21D;53638;51.062;5.804;2023-07-31T11:03:27;20.75;118.99
66726;HTU21D;53638;51.062;5.804;2023-07-31T11:05:59;21.48;118.99
66726;HTU21D;53638;51.062;5.804;2023-07-31T11:08:28;22.32;118.99
66726;HTU21D;53638;51.062;5.804;2023-07-31T11:13:28;22.55;118.99
66726;HTU21D;53638;51.062;5.804;2023-07-31T11:15:55;22.46;118.99
66726;HTU21D;53638;51.062;5.804;2023-07-31T11:18:22;22.32;118.99
66726;HTU21D;53638;51.062;5.804;2023-07-31T11:20:48;21.96;118.99
66726;HTU21D;53638;51.062;5.804;2023-07-31T11:23:17;21.74;118.99
66726;HTU21D;53638;51.062;5.804;2023-07-31T11:25:43;21.47;118.99
66726;HTU21D;53638;51.062;5.804;2023-07-31T11:28:12;21.31;118.99
66726;HTU21D;53638;51.062;5.804;2023-07-31T11:30:39;21.21;118.99
66726;HTU21D;53638;51.062;5.804;2023-07-31T11:33:08;21.02;118.99
66726;HTU21D;53638;51.062;5.804;2023-07-31T11:35:43;21.04;118.99
66726;HTU21D;53638;51.062;5.804;2023-07-31T11:38:12;20.89;118.99
66726;HTU21D;53638;51.062;5.804;2023-07-31T11:40:43;20.92;118.99
66726;HTU21D;53638;51.062;5.804;2023-07-31T11:43:10;21.05;118.99
66726;HTU21D;53638;51.062;5.804;2023-07-31T11:45:44;21.11;118.99
66726;HTU21D;53638;51.062;5.804;2023-07-31T11:48:18;21.27;118.99
66726;HTU21D;53638;51.062;5.804;2023-07-31T11:50:45;21.46;118.99
66726;HTU21D;53638;51.062;5.804;2023-07-31T11:53:13;21.92;118.99
66726;HTU21D;53638;51.062;5.804;2023-07-31T11:55:40;22.37;118.99
66726;HTU21D;53638;51.062;5.804;2023-07-31T11:58:06;22.43;118.99
66726;HTU21D;53638;51.062;5.804;2023-07-31T12:00:32;22.63;118.99
66726;HTU21D;53638;51.062;5.804;2023-07-31T12:02:58;23.12;118.99
66726;HTU21D;53638;51.062;5.804;2023-07-31T12:05:24;23.15;118.99
66726;HTU21D;53638;51.062;5.804;2023-07-31T12:07:52;23.32;118.99
66726;HTU21D;53638;51.062;5.804;2023-07-31T12:10:25;23.71;118.99
66726;HTU21D;53638;51.062;5.804;2023-07-31T12:13:08;23.77;118.99
66726;HTU21D;53638;51.062;5.804;2023-07-31T12:15:40;23.70;118.99
66726;HTU21D;53638;51.062;5.804;2023-07-31T12:18:10;24.13;118.99
66726;HTU21D;53638;51.062;5.804;2023-07-31T12:20:44;24.75;118.99
66726;HTU21D;53638;51.062;5.804;2023-07-31T12:23:23;25.67;118.99
66726;HTU21D;53638;51.062;5.804;2023-07-31T12:26:03;25.49;118.99
66726;HTU21D;53638;51.062;5.804;2023-07-31T12:28:30;25.05;118.99
66726;HTU21D;53638;51.062;5.804;2023-07-31T12:30:58;24.61;118.99
66726;HTU21D;53638;51.062;5.804;2023-07-31T12:33:31;24.34;118.99
66726;HTU21D;53638;51.062;5.804;2023-07-31T12:36:00;24.30;118.99
66726;HTU21D;53638;51.062;5.804;2023-07-31T12:38:26;24.69;118.99
66726;HTU21D;53638;51.062;5.804;2023-07-31T12:40:52;25.01;118.99
66726;HTU21D;53638;51.062;5.804;2023-07-31T12:43:18;25.08;118.99
66726;HTU21D;53638;51.062;5.804;2023-07-31T12:45:43;25.30;118.99
66726;HTU21D;53638;51.062;5.804;2023-07-31T12:48:09;25.24;118.99
66726;HTU21D;53638;51.062;5.804;2023-07-31T12:50:35;25.09;118.99
66726;HTU21D;53638;51.062;5.804;2023-07-31T12:53:02;25.18;118.99
66726;HTU21D;53638;51.062;5.804;2023-07-31T12:55:29;25.43;118.99
66726;HTU21D;53638;51.062;5.804;2023-07-31T12:57:55;25.90;118.99
66726;HTU21D;53638;51.062;5.804;2023-07-31T13:00:22;26.26;118.99
66726;HTU21D;53638;51.062;5.804;2023-07-31T13:02:48;25.68;118.99
66726;HTU21D;53638;51.062;5.804;2023-07-31T13:05:14;25.54;118.99
66726;HTU21D;53638;51.062;5.804;2023-07-31T13:07:40;26.22;118.99
66726;HTU21D;53638;51.062;5.804;2023-07-31T13:10:07;28.05;118.99
66726;HTU21D;53638;51.062;5.804;2023-07-31T13:12:34;28.06;118.99
66726;HTU21D;53638;51.062;5.804;2023-07-31T13:14:59;27.19;118.99
66726;HTU21D;53638;51.062;5.804;2023-07-31T13:17:26;26.27;118.99
66726;HTU21D;53638;51.062;5.804;2023-07-31T13:19:52;25.47;118.99
66726;HTU21D;53638;51.062;5.804;2023-07-31T13:22:18;24.68;118.99
66726;HTU21D;53638;51.062;5.804;2023-07-31T13:24:44;24.04;118.99
66726;HTU21D;53638;51.062;5.804;2023-07-31T13:27:10;23.43;118.99
66726;HTU21D;53638;51.062;5.804;2023-07-31T13:29:36;23.01;118.99
66726;HTU21D;53638;51.062;5.804;2023-07-31T13:32:02;22.67;118.99
66726;HTU21D;53638;51.062;5.804;2023-07-31T13:34:28;22.46;118.99
66726;HTU21D;53638;51.062;5.804;2023-07-31T13:36:54;22.26;118.99
66726;HTU21D;53638;51.062;5.804;2023-07-31T13:39:21;22.13;118.99
66726;HTU21D;53638;51.062;5.804;2023-07-31T13:41:47;22.05;118.99
66726;HTU21D;53638;51.062;5.804;2023-07-31T13:44:14;21.96;118.99
66726;HTU21D;53638;51.062;5.804;2023-07-31T13:46:40;21.89;118.99
66726;HTU21D;53638;51.062;5.804;2023-07-31T13:49:06;21.89;118.99
66726;HTU21D;53638;51.062;5.804;2023-07-31T13:51:32;21.85;118.99
66726;HTU21D;53638;51.062;5.804;2023-07-31T13:53:58;21.91;118.99
66726;HTU21D;53638;51.062;5.804;2023-07-31T13:56:23;21.92;118.99
66726;HTU21D;53638;51.062;5.804;2023-07-31T13:58:50;21.88;118.99
66726;HTU21D;53638;51.062;5.804;2023-07-31T14:01:16;22.01;118.99
66726;HTU21D;53638;51.062;5.804;2023-07-31T14:03:42;22.24;118.99
66726;HTU21D;53638;51.062;5.804;2023-07-31T14:06:08;22.57;118.99
66726;HTU21D;53638;51.062;5.804;2023-07-31T14:08:34;22.87;118.99
66726;HTU21D;53638;51.062;5.804;2023-07-31T14:10:59;23.15;118.99
66726;HTU21D;53638;51.062;5.804;2023-07-31T14:13:25;23.34;118.99
66726;HTU21D;53638;51.062;5.804;2023-07-31T14:15:51;23.56;118.99
66726;HTU21D;53638;51.062;5.804;2023-07-31T14:18:17;23.69;118.99
66726;HTU21D;53638;51.062;5.804;2023-07-31T14:20:43;23.69;118.99
66726;HTU21D;53638;51.062;5.804;2023-07-31T14:23:09;23.53;118.99
66726;HTU21D;53638;51.062;5.804;2023-07-31T14:25:35;23.27;118.99
66726;HTU21D;53638;51.062;5.804;2023-07-31T14:28:01;23.03;118.99
66726;HTU21D;53638;51.062;5.804;2023-07-31T14:30:27;22.84;118.99
66726;HTU21D;53638;51.062;5.804;2023-07-31T14:32:53;22.64;118.99
66726;HTU21D;53638;51.062;5.804;2023-07-31T14:35:19;22.46;118.99
66726;HTU21D;53638;51.062;5.804;2023-07-31T14:37:45;22.25;118.99
66726;HTU21D;53638;51.062;5.804;2023-07-31T14:40:12;22.10;118.99
66726;HTU21D;53638;51.062;5.804;2023-07-31T14:42:39;22.03;118.99
66726;HTU21D;53638;51.062;5.804;2023-07-31T14:45:06;21.96;118.99
66726;HTU21D;53638;51.062;5.804;2023-07-31T14:47:33;21.93;118.99
66726;HTU21D;53638;51.062;5.804;2023-07-31T14:50:00;21.88;118.99
66726;HTU21D;53638;51.062;5.804;2023-07-31T14:52:26;21.66;118.99
66726;HTU21D;53638;51.062;5.804;2023-07-31T14:54:52;21.23;118.99
66726;HTU21D;53638;51.062;5.804;2023-07-31T14:57:18;20.72;118.99
66726;HTU21D;53638;51.062;5.804;2023-07-31T14:59:45;20.25;118.99
66726;HTU21D;53638;51.062;5.804;2023-07-31T15:02:11;19.88;118.99
66726;HTU21D;53638;51.062;5.804;2023-07-31T15:04:37;19.53;118.99
66726;HTU21D;53638;51.062;5.804;2023-07-31T15:07:04;19.38;118.99